Portada
METAR-TAF:

METAR-TAF

Aeropuertos :

Fort Madison Municipal Airport

Fort Madison, Iowa, Estados Unidos

latitud: 40-40N, longitud: 091-20W, altitud: 221 m

Observación

El informe se hizo hace 18 minutos, a las 06:55 UTC
Viento calma
Temperatura 13°C
Humedad 82%
Presión 1025 hPa
Visibilidad: 16.1 km
Cielo despejado

METAR: KFSW 310655Z AUTO 00000KT 10SM CLR 13/10 A3026 RMK AO2

Hora: 02:13 (07:13 UTC)


TAF: falta

Observaciones y pronósticos meteorológicos de más de 4000 aeropuertos (mensajes METAR y TAF).

Los puntos amarillos y rojos representan las estaciones disponibles.

Ponga el ratón en el punto deseado para ver el nombre de la estación.

Haga clic para ver las observaciones y los pronósticos meteorológicos.

Para cambiar el mapa : haga clic en los botones verdes con una cruz de color negro para hacer un zoom, en el botón verde con un guión para alejar o en las flechas verdes para mapas adyacentes.


METAR-TAF: